createdAt,value
2019-06-25T00:00:58.545Z,100.0
2019-06-25T00:01:59.227Z,100.0
2019-06-25T00:02:59.894Z,100.0
2019-06-25T00:04:00.592Z,100.0
2019-06-25T00:05:01.285Z,100.0
2019-06-25T00:06:01.949Z,100.0
2019-06-25T00:07:02.627Z,100.0
2019-06-25T00:08:03.307Z,100.0
2019-06-25T00:09:04.024Z,100.0
2019-06-25T00:10:04.701Z,100.0
2019-06-25T00:11:05.412Z,100.0
2019-06-25T00:12:06.093Z,100.0
2019-06-25T00:13:06.762Z,100.0
2019-06-25T00:14:07.475Z,100.0
2019-06-25T00:15:08.168Z,100.0
2019-06-25T00:16:08.872Z,100.0
2019-06-25T00:17:09.551Z,100.0
2019-06-25T00:18:10.210Z,100.0
2019-06-25T00:19:10.877Z,100.0
2019-06-25T00:20:11.575Z,100.0
2019-06-25T00:21:12.214Z,100.0
2019-06-25T00:22:12.894Z,100.0
2019-06-25T00:23:13.598Z,100.0
2019-06-25T00:24:14.263Z,100.0
2019-06-25T00:25:14.923Z,100.0
2019-06-25T00:26:15.620Z,100.0
2019-06-25T00:27:16.329Z,100.0
2019-06-25T00:28:17.011Z,100.0
2019-06-25T00:29:17.711Z,100.0
2019-06-25T00:30:18.418Z,100.0
2019-06-25T00:31:19.107Z,100.0
2019-06-25T00:32:19.773Z,100.0
2019-06-25T00:33:20.441Z,100.0
2019-06-25T00:34:21.102Z,100.0
2019-06-25T00:35:21.782Z,100.0
2019-06-25T00:36:22.488Z,100.0
2019-06-25T00:37:23.152Z,100.0
2019-06-25T00:38:23.818Z,100.0
2019-06-25T00:39:24.534Z,100.0
2019-06-25T00:40:25.311Z,100.0
2019-06-25T00:41:25.977Z,100.0
2019-06-25T00:42:26.647Z,100.0
2019-06-25T00:43:27.343Z,100.0
2019-06-25T00:44:28.034Z,100.0
2019-06-25T00:45:28.697Z,100.0
2019-06-25T00:46:29.358Z,100.0
2019-06-25T00:47:30.053Z,100.0
2019-06-25T00:48:30.749Z,100.0
2019-06-25T00:49:31.418Z,100.0
2019-06-25T00:50:32.078Z,100.0
2019-06-25T00:51:32.778Z,100.0
2019-06-25T00:52:33.464Z,100.0
2019-06-25T00:53:34.133Z,100.0
2019-06-25T00:54:34.795Z,100.0
2019-06-25T00:55:35.459Z,100.0
2019-06-25T00:56:36.129Z,100.0
2019-06-25T00:57:36.826Z,100.0
2019-06-25T00:58:37.606Z,100.0
2019-06-25T00:59:38.283Z,100.0
2019-06-25T01:00:38.978Z,100.0
2019-06-25T01:01:39.681Z,100.0
2019-06-25T01:02:40.373Z,100.0
2019-06-25T01:03:41.043Z,100.0
2019-06-25T01:04:41.738Z,100.0
2019-06-25T01:05:42.429Z,100.0
2019-06-25T01:06:43.146Z,100.0
2019-06-25T01:07:43.834Z,100.0
2019-06-25T01:08:44.532Z,100.0
2019-06-25T01:09:45.212Z,100.0
2019-06-25T01:10:45.874Z,100.0
2019-06-25T01:11:46.570Z,100.0
2019-06-25T01:12:47.240Z,100.0
2019-06-25T01:13:47.905Z,100.0
2019-06-25T01:14:48.580Z,100.0
2019-06-25T01:15:49.265Z,100.0
2019-06-25T01:16:49.959Z,100.0
2019-06-25T01:17:50.620Z,100.0
2019-06-25T01:18:51.314Z,100.0
2019-06-25T01:19:52.008Z,100.0
2019-06-25T01:20:52.670Z,100.0
2019-06-25T01:21:53.381Z,100.0
2019-06-25T01:22:54.092Z,100.0
2019-06-25T01:23:54.758Z,100.0
2019-06-25T01:24:55.419Z,100.0
2019-06-25T01:25:56.159Z,100.0
2019-06-25T01:26:56.854Z,100.0
2019-06-25T01:27:57.540Z,100.0
2019-06-25T01:28:58.223Z,100.0
2019-06-25T01:29:58.913Z,100.0
2019-06-25T01:30:59.583Z,100.0
2019-06-25T01:32:00.238Z,100.0
2019-06-25T01:33:00.937Z,100.0
2019-06-25T01:34:01.667Z,100.0
2019-06-25T01:35:02.342Z,100.0
2019-06-25T01:36:03.053Z,100.0
2019-06-25T01:37:03.736Z,100.0
2019-06-25T01:38:04.396Z,100.0
2019-06-25T01:39:05.063Z,100.0
2019-06-25T01:40:05.760Z,100.0
2019-06-25T01:41:06.466Z,100.0
2019-06-25T01:42:07.230Z,100.0
2019-06-25T01:43:07.916Z,100.0
2019-06-25T01:44:08.591Z,100.0
2019-06-25T01:45:09.280Z,100.0
2019-06-25T01:46:09.955Z,100.0
2019-06-25T01:47:10.650Z,100.0
2019-06-25T01:48:11.321Z,100.0
2019-06-25T01:49:12.008Z,100.0
2019-06-25T01:50:12.689Z,100.0
2019-06-25T01:51:13.364Z,100.0
2019-06-25T01:52:14.077Z,100.0
2019-06-25T01:53:14.755Z,100.0
2019-06-25T01:54:15.473Z,100.0
2019-06-25T01:55:16.147Z,100.0
2019-06-25T01:56:16.808Z,100.0
2019-06-25T01:57:17.478Z,100.0
2019-06-25T01:58:18.188Z,100.0
2019-06-25T01:59:18.883Z,100.0
2019-06-25T02:00:19.573Z,100.0
2019-06-25T02:01:20.250Z,100.0
2019-06-25T02:02:20.947Z,100.0
2019-06-25T02:03:21.644Z,100.0
2019-06-25T02:04:22.305Z,100.0
2019-06-25T02:05:23.012Z,100.0
2019-06-25T02:06:23.702Z,100.0
2019-06-25T02:07:24.371Z,100.0
2019-06-25T02:08:25.106Z,100.0
2019-06-25T02:09:25.775Z,100.0
2019-06-25T02:10:26.499Z,100.0
2019-06-25T02:11:27.180Z,100.0
2019-06-25T02:12:27.873Z,100.0
2019-06-25T02:13:28.577Z,100.0
2019-06-25T02:14:29.237Z,100.0
2019-06-25T02:15:29.916Z,100.0
2019-06-25T02:16:30.605Z,100.0
2019-06-25T02:17:31.303Z,100.0
2019-06-25T02:18:32.001Z,100.0
2019-06-25T02:19:32.691Z,100.0
2019-06-25T02:20:33.386Z,100.0
2019-06-25T02:21:34.079Z,100.0
2019-06-25T02:22:34.744Z,100.0
2019-06-25T02:23:35.430Z,100.0
2019-06-25T02:24:36.126Z,100.0
2019-06-25T02:25:36.817Z,100.0
2019-06-25T02:26:37.485Z,100.0
2019-06-25T02:27:38.159Z,100.0
2019-06-25T02:28:38.856Z,100.0
2019-06-25T02:29:39.551Z,100.0
2019-06-25T02:30:40.245Z,100.0
2019-06-25T02:31:40.938Z,100.0
2019-06-25T02:32:41.618Z,100.0
2019-06-25T02:33:42.291Z,100.0
2019-06-25T02:34:42.982Z,100.0
2019-06-25T02:35:43.656Z,100.0
2019-06-25T02:36:44.366Z,100.0
2019-06-25T02:37:45.087Z,100.0
2019-06-25T02:38:45.806Z,100.0
2019-06-25T02:39:46.491Z,100.0
2019-06-25T02:40:47.188Z,100.0
2019-06-25T02:41:47.891Z,100.0
2019-06-25T02:42:48.611Z,100.0
2019-06-25T02:43:49.266Z,100.0
2019-06-25T02:44:49.918Z,100.0
2019-06-25T02:45:50.629Z,100.0
2019-06-25T02:46:51.306Z,100.0
2019-06-25T02:47:52.025Z,100.0
2019-06-25T02:48:52.751Z,100.0
2019-06-25T02:49:53.415Z,100.0
2019-06-25T02:50:54.091Z,100.0
2019-06-25T02:51:54.828Z,100.0
2019-06-25T02:52:55.459Z,100.0
2019-06-25T02:53:56.152Z,100.0
2019-06-25T02:54:56.846Z,100.0
2019-06-25T02:55:57.555Z,100.0
2019-06-25T02:56:58.244Z,100.0
2019-06-25T02:57:58.934Z,100.0
2019-06-25T02:58:59.598Z,100.0
2019-06-25T03:00:00.270Z,100.0
2019-06-25T03:01:00.959Z,100.0
2019-06-25T03:02:01.698Z,100.0
2019-06-25T03:03:02.331Z,100.0
2019-06-25T03:04:02.987Z,100.0
2019-06-25T03:05:03.706Z,100.0
2019-06-25T03:06:04.399Z,100.0
2019-06-25T03:07:05.081Z,100.0
2019-06-25T03:08:05.759Z,100.0
2019-06-25T03:09:06.466Z,100.0
2019-06-25T03:10:07.165Z,100.0
2019-06-25T03:11:07.845Z,100.0
2019-06-25T03:12:08.554Z,100.0
2019-06-25T03:13:09.237Z,100.0
2019-06-25T03:14:09.932Z,100.0
2019-06-25T03:15:10.601Z,100.0
2019-06-25T03:16:11.266Z,100.0
2019-06-25T03:17:11.926Z,100.0
2019-06-25T03:18:12.648Z,100.0
2019-06-25T03:19:13.291Z,100.0
2019-06-25T03:20:13.955Z,100.0
2019-06-25T03:21:14.630Z,100.0
2019-06-25T03:22:15.326Z,100.0
2019-06-25T03:23:16.032Z,100.0
2019-06-25T03:24:16.755Z,100.0
2019-06-25T03:25:17.418Z,100.0
2019-06-25T03:26:18.101Z,100.0
2019-06-25T03:27:18.797Z,100.0
2019-06-25T03:28:19.464Z,100.0
2019-06-25T03:29:20.139Z,100.0
2019-06-25T03:30:20.799Z,100.0
2019-06-25T03:31:21.586Z,100.0
2019-06-25T03:32:22.230Z,100.0
2019-06-25T03:33:22.921Z,100.0
2019-06-25T03:34:23.707Z,100.0
2019-06-25T03:35:24.329Z,100.0
2019-06-25T03:36:25.032Z,100.0
2019-06-25T03:37:25.723Z,100.0
2019-06-25T03:38:26.408Z,100.0
2019-06-25T03:39:27.090Z,100.0
2019-06-25T03:40:27.771Z,100.0
2019-06-25T03:41:28.437Z,100.0
2019-06-25T03:42:29.134Z,100.0
2019-06-25T03:43:29.800Z,100.0
2019-06-25T03:44:30.469Z,100.0
2019-06-25T03:45:31.169Z,100.0
2019-06-25T03:46:31.864Z,100.0
2019-06-25T03:47:32.535Z,100.0
2019-06-25T03:48:33.228Z,100.0
2019-06-25T03:49:33.910Z,100.0
2019-06-25T03:50:34.671Z,100.0
2019-06-25T03:51:35.314Z,100.0
2019-06-25T03:52:36.014Z,100.0
2019-06-25T03:53:36.747Z,100.0
2019-06-25T03:54:37.418Z,100.0
2019-06-25T03:55:38.087Z,100.0
2019-06-25T03:56:38.791Z,100.0
2019-06-25T03:57:39.489Z,100.0
2019-06-25T03:58:40.202Z,100.0
2019-06-25T03:59:40.883Z,100.0
2019-06-25T04:00:41.593Z,100.0
2019-06-25T04:01:42.314Z,100.0
2019-06-25T04:02:42.993Z,100.0
2019-06-25T04:03:43.716Z,100.0
2019-06-25T04:04:44.512Z,100.0
2019-06-25T04:05:47.247Z,100.0
2019-06-25T04:06:45.836Z,100.0
2019-06-25T04:07:46.505Z,100.0
2019-06-25T04:08:47.177Z,100.0
2019-06-25T04:09:47.859Z,100.0
2019-06-25T04:10:48.549Z,100.0
2019-06-25T04:11:52.571Z,100.0
2019-06-25T04:12:49.922Z,100.0
2019-06-25T04:13:50.627Z,100.0
2019-06-25T04:14:51.296Z,100.0
2019-06-25T04:15:51.981Z,100.0
2019-06-25T04:16:52.686Z,100.0
2019-06-25T04:17:53.370Z,100.0
2019-06-25T04:18:54.039Z,100.0
2019-06-25T04:19:54.708Z,100.0
2019-06-25T04:20:55.378Z,100.0
2019-06-25T04:21:56.045Z,100.0
2019-06-25T04:22:56.715Z,100.0
2019-06-25T04:23:57.430Z,100.0
2019-06-25T04:24:58.131Z,100.0
2019-06-25T04:25:58.831Z,100.0
2019-06-25T04:26:59.539Z,100.0
2019-06-25T04:28:00.232Z,100.0
2019-06-25T04:29:00.919Z,100.0
2019-06-25T04:30:01.597Z,100.0
2019-06-25T04:31:02.289Z,100.0
2019-06-25T04:32:02.991Z,100.0
2019-06-25T04:33:03.694Z,100.0
2019-06-25T04:34:04.374Z,100.0
2019-06-25T04:35:05.078Z,100.0
2019-06-25T04:36:05.753Z,100.0
2019-06-25T04:37:06.449Z,100.0
2019-06-25T04:38:07.118Z,100.0
2019-06-25T04:39:07.810Z,100.0
2019-06-25T04:40:08.491Z,100.0
2019-06-25T04:41:09.162Z,100.0
2019-06-25T04:42:10.098Z,100.0
2019-06-25T04:43:10.787Z,100.0
2019-06-25T04:44:11.448Z,100.0
2019-06-25T04:45:12.167Z,100.0
2019-06-25T04:46:12.872Z,100.0
2019-06-25T04:47:13.569Z,100.0
2019-06-25T04:48:14.253Z,100.0
2019-06-25T04:49:14.951Z,100.0
2019-06-25T04:50:15.618Z,100.0
2019-06-25T04:51:16.313Z,100.0
2019-06-25T04:52:17.002Z,100.0
2019-06-25T04:53:17.716Z,100.0
2019-06-25T04:54:18.547Z,100.0
2019-06-25T04:55:19.100Z,100.0
2019-06-25T04:56:19.785Z,100.0
2019-06-25T04:57:20.471Z,100.0
2019-06-25T04:58:21.156Z,100.0
2019-06-25T04:59:21.863Z,100.0
2019-06-25T05:00:22.597Z,100.0
2019-06-25T05:01:26.666Z,100.0
2019-06-25T05:02:24.899Z,100.0
2019-06-25T05:03:25.610Z,100.0
2019-06-25T05:04:26.300Z,100.0
2019-06-25T05:05:26.997Z,100.0
2019-06-25T05:06:27.696Z,100.0
2019-06-25T05:07:28.385Z,100.0
2019-06-25T05:08:29.089Z,100.0
2019-06-25T05:09:29.768Z,100.0
2019-06-25T05:10:30.490Z,100.0
2019-06-25T05:11:31.180Z,100.0
2019-06-25T05:12:31.866Z,100.0
2019-06-25T05:13:32.551Z,100.0
2019-06-25T05:14:33.251Z,100.0
2019-06-25T05:15:33.925Z,100.0
2019-06-25T05:16:34.641Z,100.0
2019-06-25T05:17:35.328Z,100.0
2019-06-25T05:18:36.000Z,100.0
2019-06-25T05:19:36.746Z,100.0
2019-06-25T05:20:37.395Z,100.0
2019-06-25T05:21:38.153Z,100.0
2019-06-25T05:22:38.846Z,100.0
2019-06-25T05:23:39.579Z,100.0
2019-06-25T05:24:40.256Z,100.0
2019-06-25T05:25:40.958Z,100.0
2019-06-25T05:26:41.664Z,100.0
2019-06-25T05:27:42.339Z,100.0
2019-06-25T05:28:43.041Z,100.0
2019-06-25T05:29:43.739Z,100.0
2019-06-25T05:30:44.420Z,100.0
2019-06-25T05:31:45.110Z,100.0
2019-06-25T05:32:45.794Z,100.0
2019-06-25T05:33:46.503Z,100.0
2019-06-25T05:34:47.168Z,100.0
2019-06-25T05:35:47.886Z,99.7
2019-06-25T05:36:48.586Z,99.0
2019-06-25T05:37:49.271Z,96.5
2019-06-25T05:38:49.973Z,96.7
2019-06-25T05:39:50.703Z,95.5
2019-06-25T05:40:51.340Z,96.8
2019-06-25T05:41:52.042Z,96.9
2019-06-25T05:42:52.745Z,95.0
2019-06-25T05:43:53.419Z,100.0
2019-06-25T05:44:54.131Z,100.0
2019-06-25T05:45:54.863Z,98.6
2019-06-25T05:46:55.495Z,96.2
2019-06-25T05:47:56.222Z,94.4
2019-06-25T05:48:56.904Z,90.7
2019-06-25T05:49:57.610Z,88.4
2019-06-25T05:50:58.312Z,86.2
2019-06-25T05:51:58.981Z,83.6
2019-06-25T05:53:02.542Z,82.7
2019-06-25T05:54:00.367Z,78.7
2019-06-25T05:55:01.028Z,78.6
2019-06-25T05:56:01.711Z,74.3
2019-06-25T05:57:02.399Z,71.5
2019-06-25T05:58:03.102Z,71.3
2019-06-25T05:59:03.775Z,70.2
2019-06-25T06:00:04.476Z,67.9
2019-06-25T06:01:05.183Z,66.8
2019-06-25T06:02:05.886Z,65.6
2019-06-25T06:03:19.334Z,66.2
2019-06-25T06:04:08.274Z,67.1
2019-06-25T06:05:08.923Z,68.5
2019-06-25T06:06:09.595Z,68.0
2019-06-25T06:07:10.299Z,71.8
2019-06-25T06:08:10.999Z,77.8
2019-06-25T06:09:11.700Z,79.3
2019-06-25T06:10:12.405Z,78.8
2019-06-25T06:11:13.082Z,75.4
2019-06-25T06:12:13.784Z,74.4
2019-06-25T06:13:14.455Z,74.5
2019-06-25T06:14:15.126Z,74.9
2019-06-25T06:15:15.800Z,75.9
2019-06-25T06:16:16.501Z,80.3
2019-06-25T06:17:17.175Z,86.9
2019-06-25T06:18:17.913Z,85.7
2019-06-25T06:19:18.557Z,86.2
2019-06-25T06:20:19.265Z,88.3
2019-06-25T06:21:19.952Z,95.9
2019-06-25T06:22:20.678Z,98.3
2019-06-25T06:23:21.350Z,100.0
2019-06-25T06:24:22.056Z,97.0
2019-06-25T06:25:22.726Z,99.0
2019-06-25T06:26:23.442Z,100.0
2019-06-25T06:27:24.130Z,100.0
2019-06-25T06:29:38.096Z,99.0
2019-06-25T06:30:38.769Z,97.9
2019-06-25T06:31:39.472Z,93.2
2019-06-25T06:32:40.141Z,94.4
2019-06-25T06:33:40.843Z,92.2
2019-06-25T06:34:41.571Z,88.6
2019-06-25T06:35:42.502Z,87.7
2019-06-25T06:36:43.174Z,86.2
2019-06-25T06:37:43.877Z,80.7
2019-06-25T06:38:44.583Z,80.1
2019-06-25T06:39:45.264Z,80.3
2019-06-25T06:40:45.953Z,80.0
2019-06-25T06:41:46.622Z,83.4
2019-06-25T06:42:47.321Z,86.1
2019-06-25T06:43:47.999Z,90.5
2019-06-25T06:44:48.695Z,89.5
2019-06-25T06:45:49.371Z,88.6
2019-06-25T06:46:50.052Z,85.2
2019-06-25T06:47:50.746Z,81.1
2019-06-25T06:48:51.453Z,78.2
2019-06-25T06:49:52.160Z,78.4
2019-06-25T06:50:52.866Z,83.3
2019-06-25T06:51:53.538Z,82.7
2019-06-25T06:52:54.324Z,79.1
2019-06-25T06:53:54.955Z,77.2
2019-06-25T06:54:55.661Z,76.5
2019-06-25T06:55:56.345Z,75.5
2019-06-25T06:56:57.053Z,73.8
2019-06-25T06:57:57.742Z,71.9
2019-06-25T06:58:58.444Z,69.8
2019-06-25T06:59:59.117Z,69.1
2019-06-25T07:00:59.961Z,70.0
2019-06-25T07:02:00.496Z,69.0
2019-06-25T07:03:01.994Z,68.4
2019-06-25T07:04:02.689Z,69.2
2019-06-25T07:05:03.401Z,68.4
2019-06-25T07:06:04.104Z,69.0
2019-06-25T07:07:04.797Z,67.7
2019-06-25T07:08:05.485Z,65.6
2019-06-25T07:09:06.204Z,68.1
2019-06-25T07:10:06.886Z,69.2
2019-06-25T07:11:07.579Z,68.9
2019-06-25T07:12:08.267Z,66.2
2019-06-25T07:13:08.946Z,66.5
2019-06-25T07:14:09.651Z,63.8
2019-06-25T07:15:10.423Z,63.9
2019-06-25T07:16:11.037Z,63.4
2019-06-25T07:17:11.898Z,60.7
2019-06-25T07:18:12.449Z,61.5
2019-06-25T07:19:13.169Z,61.3
2019-06-25T07:20:13.928Z,60.4
2019-06-25T07:21:14.529Z,61.2
2019-06-25T07:22:17.099Z,58.4
2019-06-25T07:23:15.901Z,58.9
2019-06-25T07:24:16.614Z,58.5
2019-06-25T07:25:17.336Z,58.0
2019-06-25T07:26:18.037Z,60.9
2019-06-25T07:27:18.732Z,57.5
2019-06-25T07:28:19.443Z,56.3
2019-06-25T07:29:20.112Z,56.6
2019-06-25T07:30:20.814Z,55.9
2019-06-25T07:31:21.503Z,56.8
2019-06-25T07:32:22.202Z,57.5
2019-06-25T07:33:22.924Z,56.3
2019-06-25T07:34:23.608Z,56.6
2019-06-25T07:35:24.312Z,57.0
2019-06-25T07:36:24.986Z,57.1
2019-06-25T07:37:25.723Z,57.4
2019-06-25T07:38:26.404Z,56.8
2019-06-25T07:39:27.085Z,56.2
2019-06-25T07:40:27.797Z,57.5
2019-06-25T07:41:28.501Z,56.2
2019-06-25T07:42:29.208Z,57.5
2019-06-25T07:43:29.911Z,57.4
2019-06-25T07:44:30.617Z,56.4
2019-06-25T07:45:31.318Z,55.6
2019-06-25T07:46:32.000Z,55.4
2019-06-25T07:47:32.689Z,55.0
2019-06-25T07:48:33.392Z,55.4
2019-06-25T07:49:34.085Z,55.3
2019-06-25T07:50:34.792Z,55.3
2019-06-25T07:51:35.498Z,55.4
2019-06-25T07:52:36.207Z,54.8
2019-06-25T07:53:36.917Z,53.8
2019-06-25T07:54:37.627Z,53.0
2019-06-25T07:55:38.306Z,51.8
2019-06-25T07:56:38.988Z,51.9
2019-06-25T07:57:39.689Z,51.0
2019-06-25T07:58:40.366Z,50.5
2019-06-25T07:59:41.075Z,49.4
2019-06-25T08:00:41.761Z,50.4
2019-06-25T08:01:42.435Z,50.7
2019-06-25T08:02:43.115Z,51.2
2019-06-25T08:03:43.819Z,51.7
2019-06-25T08:04:44.547Z,52.0
2019-06-25T08:05:45.237Z,51.0
2019-06-25T08:06:45.942Z,51.3
2019-06-25T08:07:46.669Z,54.8
2019-06-25T08:08:47.363Z,54.7
2019-06-25T08:09:48.097Z,55.5
2019-06-25T08:10:48.782Z,54.7
2019-06-25T08:11:49.461Z,55.0
2019-06-25T08:12:50.171Z,56.1
2019-06-25T08:13:50.851Z,56.9
2019-06-25T08:14:51.558Z,56.0
2019-06-25T08:15:52.238Z,54.0
2019-06-25T08:16:52.979Z,54.2
2019-06-25T08:17:53.699Z,53.4
2019-06-25T08:18:54.407Z,52.5
2019-06-25T08:19:55.090Z,53.3
2019-06-25T08:20:55.790Z,53.3
2019-06-25T08:21:56.476Z,51.8
2019-06-25T08:22:57.186Z,51.0
2019-06-25T08:23:57.865Z,50.9
2019-06-25T08:24:58.597Z,49.1
2019-06-25T08:25:59.291Z,49.4
2019-06-25T08:27:00.078Z,48.9
2019-06-25T08:28:00.702Z,49.9
2019-06-25T08:29:01.379Z,49.7
2019-06-25T08:30:02.308Z,49.5
2019-06-25T08:31:02.810Z,48.7
2019-06-25T08:32:03.515Z,49.4
2019-06-25T08:33:04.219Z,48.9
2019-06-25T08:34:04.921Z,49.5
2019-06-25T08:35:05.606Z,50.5
2019-06-25T08:36:06.287Z,50.7
2019-06-25T08:37:06.997Z,51.4
2019-06-25T08:38:07.714Z,50.7
2019-06-25T08:39:08.418Z,51.3
2019-06-25T08:40:19.143Z,50.9
2019-06-25T08:41:09.823Z,50.6
2019-06-25T08:42:10.500Z,51.8
2019-06-25T08:43:11.183Z,51.0
2019-06-25T08:44:11.891Z,51.5
2019-06-25T08:45:12.595Z,51.0
2019-06-25T08:46:13.298Z,53.4
2019-06-25T08:47:14.016Z,51.9
2019-06-25T08:48:14.689Z,52.4
2019-06-25T08:49:15.403Z,52.4
2019-06-25T08:50:16.071Z,52.0
2019-06-25T08:51:16.761Z,52.3
2019-06-25T08:52:17.457Z,51.9
2019-06-25T08:53:18.135Z,53.4
2019-06-25T08:54:18.894Z,52.4
2019-06-25T08:55:19.525Z,50.8
2019-06-25T08:56:20.233Z,53.6
2019-06-25T08:57:20.944Z,54.5
2019-06-25T08:58:21.659Z,55.0
2019-06-25T08:59:24.065Z,54.6
2019-06-25T09:00:24.004Z,53.4
2019-06-25T09:01:24.740Z,53.9
2019-06-25T09:02:25.421Z,51.1
2019-06-25T09:03:26.101Z,51.8
2019-06-25T09:04:26.777Z,52.8
2019-06-25T09:05:27.509Z,53.4
2019-06-25T09:06:28.199Z,52.4
2019-06-25T09:07:28.905Z,52.5
2019-06-25T09:08:29.614Z,51.8
2019-06-25T09:09:30.291Z,50.8
2019-06-25T09:10:30.975Z,51.9
2019-06-25T09:11:31.678Z,53.3
2019-06-25T09:12:32.353Z,53.3
2019-06-25T09:13:33.037Z,51.2
2019-06-25T09:14:33.828Z,50.2
2019-06-25T09:15:34.542Z,50.4
2019-06-25T09:16:35.226Z,50.0
2019-06-25T09:17:35.904Z,50.1
2019-06-25T09:18:36.598Z,50.7
2019-06-25T09:19:49.936Z,51.2
2019-06-25T09:20:38.947Z,51.9
2019-06-25T09:21:39.627Z,50.7
2019-06-25T09:22:40.309Z,50.5
2019-06-25T09:23:41.018Z,50.8
2019-06-25T09:24:41.694Z,50.1
2019-06-25T09:25:42.373Z,50.3
2019-06-25T09:26:43.055Z,50.1
2019-06-25T09:27:43.756Z,48.7
2019-06-25T09:28:44.444Z,50.0
2019-06-25T09:29:45.414Z,50.6
2019-06-25T09:30:45.816Z,51.3
2019-06-25T09:31:46.542Z,51.6
2019-06-25T09:32:47.238Z,51.9
2019-06-25T09:33:47.949Z,52.6
2019-06-25T09:34:48.633Z,53.1
2019-06-25T09:35:49.334Z,53.3
2019-06-25T09:36:50.029Z,53.1
2019-06-25T09:37:50.690Z,52.9
2019-06-25T09:38:51.369Z,51.4
2019-06-25T09:39:52.046Z,49.2
2019-06-25T09:40:52.748Z,49.3
2019-06-25T09:41:53.447Z,50.0
2019-06-25T09:42:54.158Z,50.3
2019-06-25T09:44:00.232Z,50.6
2019-06-25T09:44:56.514Z,50.7
2019-06-25T09:45:57.225Z,51.0
2019-06-25T09:46:57.905Z,51.0
2019-06-25T09:48:01.605Z,50.9
2019-06-25T09:48:59.303Z,51.4
2019-06-25T09:49:59.997Z,50.4
2019-06-25T09:51:00.718Z,50.3
2019-06-25T09:52:01.472Z,50.4
2019-06-25T09:53:02.137Z,50.6
2019-06-25T09:54:02.814Z,49.0
2019-06-25T09:55:03.486Z,48.4
2019-06-25T09:56:04.168Z,50.1
2019-06-25T09:57:04.875Z,50.0
2019-06-25T09:58:05.551Z,50.9
2019-06-25T09:59:06.233Z,50.2
2019-06-25T10:00:06.952Z,49.6
2019-06-25T10:01:07.681Z,49.4
2019-06-25T10:02:08.329Z,48.7
2019-06-25T10:03:09.006Z,48.1
2019-06-25T10:04:09.687Z,48.3
2019-06-25T10:05:10.395Z,48.4
2019-06-25T10:06:11.106Z,47.8
2019-06-25T10:07:15.423Z,48.5
2019-06-25T10:08:12.490Z,48.6
2019-06-25T10:09:13.171Z,50.3
2019-06-25T10:10:13.902Z,49.1
2019-06-25T10:11:14.660Z,48.8
2019-06-25T10:12:15.360Z,48.6
2019-06-25T10:13:16.090Z,47.1
2019-06-25T10:14:16.791Z,47.8
2019-06-25T10:15:17.496Z,47.9
2019-06-25T10:16:18.180Z,48.0
2019-06-25T10:17:19.002Z,48.0
2019-06-25T10:18:19.595Z,47.2
2019-06-25T10:19:20.311Z,47.9
2019-06-25T10:20:21.063Z,48.7
2019-06-25T10:21:21.721Z,49.0
2019-06-25T10:22:22.417Z,48.6
2019-06-25T10:23:23.127Z,48.0
2019-06-25T10:24:23.805Z,48.1
2019-06-25T10:25:24.508Z,48.1
2019-06-25T10:26:25.201Z,48.0
2019-06-25T10:27:25.919Z,48.9
2019-06-25T10:28:32.945Z,48.6
2019-06-25T10:29:27.337Z,48.2
2019-06-25T10:30:28.074Z,47.6
2019-06-25T10:31:28.772Z,48.5
2019-06-25T10:32:29.462Z,48.6
2019-06-25T10:33:30.142Z,48.9
2019-06-25T10:34:30.846Z,49.2
2019-06-25T10:35:46.201Z,49.7
2019-06-25T10:36:32.235Z,48.3
2019-06-25T10:37:32.972Z,48.4
2019-06-25T10:38:33.652Z,48.4
2019-06-25T10:39:34.333Z,48.2
2019-06-25T10:40:35.093Z,48.3
2019-06-25T10:41:35.800Z,48.8
2019-06-25T10:42:36.553Z,48.5
2019-06-25T10:43:37.232Z,48.2
2019-06-25T10:44:37.907Z,48.6
2019-06-25T10:45:38.614Z,47.7
2019-06-25T10:46:39.299Z,48.0
2019-06-25T10:47:40.002Z,47.9
2019-06-25T10:48:40.715Z,47.3
2019-06-25T10:49:41.426Z,47.3
2019-06-25T10:50:42.135Z,46.5
2019-06-25T10:51:42.852Z,46.4
2019-06-25T10:52:43.555Z,46.7
2019-06-25T10:53:44.239Z,48.0
2019-06-25T10:54:44.946Z,48.4
2019-06-25T10:55:45.627Z,48.1
2019-06-25T10:56:46.354Z,48.3
2019-06-25T10:57:47.047Z,46.6
2019-06-25T10:58:47.738Z,47.2
2019-06-25T10:59:48.415Z,46.2
2019-06-25T11:00:49.110Z,45.1
2019-06-25T11:01:49.810Z,44.7
2019-06-25T11:02:50.507Z,44.4
2019-06-25T11:03:51.217Z,45.3
2019-06-25T11:04:51.981Z,46.3
2019-06-25T11:06:04.002Z,48.0
2019-06-25T11:07:00.969Z,48.5
2019-06-25T11:07:55.047Z,47.0
2019-06-25T11:08:55.733Z,48.0
2019-06-25T11:09:56.457Z,48.4
2019-06-25T11:10:57.153Z,47.2
2019-06-25T11:11:57.832Z,46.4
2019-06-25T11:12:58.521Z,46.2
2019-06-25T11:14:08.289Z,46.7
2019-06-25T11:14:59.908Z,46.8
2019-06-25T11:16:00.857Z,47.1
2019-06-25T11:17:01.341Z,46.7
2019-06-25T11:18:02.376Z,45.6
2019-06-25T11:19:02.734Z,45.2
2019-06-25T11:20:03.414Z,46.1
2019-06-25T11:21:04.131Z,46.1
2019-06-25T11:22:04.836Z,45.4
2019-06-25T11:23:05.520Z,44.4
2019-06-25T11:24:06.200Z,45.0
2019-06-25T11:25:06.938Z,46.4
2019-06-25T11:26:21.915Z,47.1
2019-06-25T11:27:09.257Z,47.0
2019-06-25T11:28:09.939Z,47.6
2019-06-25T11:29:10.662Z,47.9
2019-06-25T11:30:11.476Z,48.1
2019-06-25T11:31:12.092Z,48.0
2019-06-25T11:32:12.786Z,45.6
2019-06-25T11:33:13.468Z,46.0
2019-06-25T11:34:14.151Z,46.3
2019-06-25T11:35:14.862Z,46.0
2019-06-25T11:36:21.203Z,44.9
2019-06-25T11:37:17.248Z,46.2
2019-06-25T11:38:17.925Z,45.8
2019-06-25T11:39:18.658Z,45.3
2019-06-25T11:40:19.333Z,45.2
2019-06-25T11:41:20.044Z,45.3
2019-06-25T11:42:20.756Z,45.0
2019-06-25T11:43:21.463Z,44.7
2019-06-25T11:44:22.152Z,44.7
2019-06-25T11:45:22.860Z,44.9
2019-06-25T11:46:23.578Z,45.9
2019-06-25T11:47:24.284Z,46.2
2019-06-25T11:48:24.991Z,45.0
2019-06-25T11:49:25.698Z,45.6
2019-06-25T11:50:26.384Z,45.2
2019-06-25T11:51:27.114Z,45.4
2019-06-25T11:52:27.808Z,45.1
2019-06-25T11:53:28.490Z,45.4
2019-06-25T11:54:29.203Z,43.0
2019-06-25T11:55:30.062Z,44.2
2019-06-25T11:56:30.710Z,44.8
2019-06-25T11:57:33.255Z,44.3
2019-06-25T11:58:32.146Z,45.6
2019-06-25T11:59:32.841Z,46.4
2019-06-25T12:00:33.539Z,46.3
2019-06-25T12:01:34.254Z,44.6
2019-06-25T12:02:34.976Z,45.0
2019-06-25T12:03:35.668Z,45.5
2019-06-25T12:04:36.352Z,45.3
2019-06-25T12:05:37.064Z,43.8
2019-06-25T12:06:52.662Z,43.0
2019-06-25T12:07:38.454Z,43.5
2019-06-25T12:08:39.172Z,44.2
2019-06-25T12:09:39.855Z,43.7
2019-06-25T12:10:40.571Z,41.4
2019-06-25T12:11:41.264Z,40.6
2019-06-25T12:12:41.979Z,40.0
2019-06-25T12:13:42.653Z,40.4
2019-06-25T12:14:43.366Z,39.6
2019-06-25T12:15:44.105Z,39.7
2019-06-25T12:16:44.757Z,41.9
2019-06-25T12:17:45.439Z,41.3
2019-06-25T12:18:46.157Z,38.8
2019-06-25T12:19:48.847Z,37.1
2019-06-25T12:20:47.542Z,37.7
2019-06-25T12:21:48.251Z,37.3
2019-06-25T12:22:48.960Z,40.9
2019-06-25T12:23:49.655Z,42.2
2019-06-25T12:24:50.366Z,41.3
2019-06-25T12:25:51.086Z,40.2
2019-06-25T12:26:51.768Z,40.3
2019-06-25T12:27:52.497Z,38.8
2019-06-25T12:28:53.191Z,38.7
2019-06-25T12:29:53.884Z,39.8
2019-06-25T12:30:54.568Z,39.8
2019-06-25T12:31:55.274Z,40.8
2019-06-25T12:32:55.988Z,40.5
2019-06-25T12:33:56.726Z,39.6
2019-06-25T12:34:59.404Z,40.2
2019-06-25T12:35:58.135Z,40.3
2019-06-25T12:37:09.045Z,40.8
2019-06-25T12:37:59.556Z,40.2
2019-06-25T12:39:00.269Z,39.8
2019-06-25T12:40:00.998Z,39.9
2019-06-25T12:41:01.693Z,38.2
2019-06-25T12:42:02.499Z,38.3
2019-06-25T12:43:03.103Z,37.8
2019-06-25T12:44:03.821Z,39.7
2019-06-25T12:45:04.497Z,39.0
2019-06-25T12:46:05.208Z,38.4
2019-06-25T12:47:05.895Z,38.3
2019-06-25T12:48:06.602Z,38.0
2019-06-25T12:49:07.321Z,38.8
2019-06-25T12:50:08.030Z,38.3
2019-06-25T12:51:11.131Z,38.7
2019-06-25T12:52:09.455Z,39.7
2019-06-25T12:53:10.135Z,39.8
2019-06-25T12:54:10.825Z,39.2
2019-06-25T12:55:11.582Z,39.5
2019-06-25T12:56:12.261Z,39.1
2019-06-25T12:57:12.946Z,39.8
2019-06-25T12:58:13.686Z,39.0
2019-06-25T12:59:14.377Z,40.1
2019-06-25T13:00:15.106Z,39.0
2019-06-25T13:01:15.782Z,38.6
2019-06-25T13:02:16.501Z,38.9
2019-06-25T13:03:17.193Z,38.6
2019-06-25T13:04:17.892Z,39.2
2019-06-25T13:05:18.572Z,37.4
2019-06-25T13:06:19.253Z,37.1
2019-06-25T13:07:25.488Z,39.8
2019-06-25T13:08:20.785Z,41.4
2019-06-25T13:09:21.396Z,40.2
2019-06-25T13:10:22.081Z,40.0
2019-06-25T13:11:22.796Z,39.1
2019-06-25T13:12:23.478Z,38.0
2019-06-25T13:13:24.216Z,39.2
2019-06-25T13:14:24.910Z,38.0
2019-06-25T13:15:25.595Z,38.4
2019-06-25T13:16:26.286Z,39.3
2019-06-25T13:17:26.991Z,39.1
2019-06-25T13:18:27.705Z,38.8